DW8107 Weather Reports


Display with metric or nautical units.
time (UTC)temp
F
wind
direction
speed
MPH
gust
MPH
rain 1hr
in
rain 24hr
in
rain mn
in
humidity
%
barometer
mb
20190120224721 50 315 0.0 4.0 0.00 0.39 0.22 83 1017.0
20190120223133 51 153 0.0 3.0 0.00 0.39 0.22 83 1016.6
20190120221641 51 68 0.0 3.0 0.00 0.39 0.22 82 1016.5
20190120220113 51 197 0.0 3.0 0.00 0.39 0.22 82 1016.3
20190120214631 51 111 0.0 4.0 0.00 0.39 0.22 80 1016.2
20190120213106 52 152 0.0 4.0 0.00 0.39 0.22 80 1016.0
20190120211606 52 263 0.0 2.0 0.00 0.39 0.22 81 1015.7
20190120210100 52 76 0.0 6.0 0.00 0.39 0.22 81 1015.8
20190120204557 52 316 0.0 3.0 0.00 0.39 0.22 80 1015.8
20190120203056 53 235 0.0 5.0 0.00 0.39 0.22 81 1015.4
20190120201535 54 98 0.0 7.0 0.00 0.39 0.22 80 1015.1
20190120200051 54 308 0.0 11.0 0.00 0.39 0.22 79 1015.0
20190120194540 54 165 0.0 4.0 0.00 0.39 0.22 80 1015.0
20190120193109 55 225 0.0 4.0 0.00 0.39 0.22 78 1014.7
20190120191545 55 193 1.0 7.0 0.00 0.39 0.22 78 1014.7
20190120190101 56 156 1.0 7.0 0.00 0.39 0.22 77 1014.7
20190120184539 57 160 0.0 5.0 0.00 0.39 0.22 75 1014.6
20190120183046 57 163 0.0 5.0 0.00 0.39 0.22 80 1014.7
20190120181541 57 53 0.0 4.0 0.00 0.39 0.22 83 1014.8
20190120180040 56 190 2.0 7.0 0.00 0.39 0.22 86 1014.9
20190120174515 57 111 1.0 7.0 0.00 0.39 0.22 86 1015.0
20190120173012 59 122 0.0 3.0 0.00 0.39 0.22 80 1014.8
20190120171516 60 58 0.0 7.0 0.00 0.39 0.22 77 1014.4
20190120170011 59 41 0.0 4.0 0.00 0.39 0.22 81 1014.5
20190120164510 60 165 1.0 6.0 0.00 0.39 0.22 78 1014.6
20190120163007 61 191 0.0 9.0 0.00 0.39 0.22 76 1014.3
20190120161505 62 49 0.0 4.0 0.00 0.39 0.22 74 1014.0
20190120160004 61 86 0.0 9.0 0.00 0.39 0.22 76 1014.0
20190120154813 61 65 0.0 9.0 0.00 0.39 0.22 76 1013.7
20190120153149 61 99 0.0 5.0 0.00 0.39 0.22 79 1013.4
20190120151710 61 9 1.0 10.0 0.00 0.39 0.22 79 1013.0
20190120150158 61 137 0.0 6.0 0.00 0.39 0.22 79 1012.9
20190120144639 61 102 0.0 7.0 0.00 0.39 0.22 81 1012.7
20190120143147 61 290 0.0 7.0 0.00 0.39 0.22 82 1012.4
20190120141635 62 208 0.0 6.0 0.00 0.39 0.22 80 1012.2
20190120140159 61 239 0.0 8.0 0.00 0.39 0.22 80 1011.8
20190120134653 60 354 0.0 4.0 0.00 0.39 0.22 80 1011.6
20190120133125 60 35 0.0 7.0 0.00 0.39 0.22 82 1011.4
20190120131642 59 252 0.0 2.0 0.00 0.39 0.22 87 1011.2
20190120130056 59 307 0.0 6.0 0.00 0.39 0.22 88 1010.9
20190120124555 60 245 0.0 4.0 0.00 0.39 0.22 89 1010.6
20190120123129 60 131 0.0 4.0 0.00 0.39 0.22 90 1010.6
20190120121543 60 83 0.0 1.0 0.00 0.39 0.22 89 1010.4
20190120120137 60 205 0.0 4.0 0.00 0.39 0.22 88 1010.2
20190120114628 60 90 0.0 3.0 0.00 0.39 0.22 87 1009.8
20190120113039 60 246 0.0 4.0 0.00 0.39 0.22 91 1009.4
20190120111541 60 56 0.0 5.0 0.00 0.39 0.22 91 1009.2
20190120110031 61 22 0.0 7.0 0.00 0.39 0.22 93 1008.9
20190120104553 61 284 0.0 6.0 0.00 0.39 0.22 92 1008.8
20190120103100 61 217 0.0 2.0 0.00 0.39 0.22 92 1008.5
20190120101536 62 214 0.0 0.0 0.00 0.39 0.22 91 1008.5
20190120100016 62 308 0.0 0.0 0.00 0.39 0.22 91 1008.4
20190120094518 62 6 0.0 1.0 0.00 0.39 0.22 91 1008.3
20190120093025 63 336 0.0 3.0 0.00 0.39 0.22 91 1008.3
20190120091512 63 89 0.0 3.0 0.00 0.39 0.22 91 1008.3
20190120090039 63 156 0.0 4.0 0.01 0.39 0.22 91 1008.5
20190120084502 64 356 1.0 4.0 0.01 0.39 0.22 91 1008.4
20190120083121 64 262 0.0 3.0 0.07 0.39 0.22 91 1008.2
20190120081658 65 205 0.0 4.0 0.14 0.39 0.22 91 1008.1
20190120080209 66 143 0.0 8.0 0.13 0.38 0.21 91 1007.8
20190120074617 66 113 0.0 4.0 0.13 0.38 0.21 91 1007.8
20190120073218 67 250 0.0 3.0 0.06 0.31 0.14 92 1007.6
20190120071629 67 229 1.0 7.0 0.00 0.25 0.08 91 1006.7
20190120070124 67 133 0.0 2.0 0.01 0.25 0.08 91 1007.0
20190120064559 67 126 0.0 4.0 0.02 0.25 0.08 91 1007.3
20190120063145 67 229 1.0 7.0 0.02 0.25 0.08 90 1007.5
20190120061613 67 117 1.0 5.0 0.03 0.25 0.08 90 1007.7
20190120060150 67 165 1.0 10.0 0.06 0.24 0.07 90 1008.1
20190120054644 67 124 0.0 4.0 0.07 0.23 0.06 91 1008.3
20190120053104 66 238 1.0 5.0 0.12 0.23 0.06 91 1008.5
20190120051639 66 91 0.0 3.0 0.15 0.22 0.05 92 1008.9
20190120050133 66 204 0.0 1.0 0.15 0.18 0.01 92 1009.4
20190120044536 66 92 0.0 0.0 0.16 0.16 0.16 92 1009.8
20190120043101 67 134 0.0 1.0 0.11 0.11 0.11 92 1010.1
20190120041609 67 155 0.0 1.0 0.07 0.07 0.07 90 1010.3
20190120040036 69 301 0.0 1.0 0.03 0.03 0.03 87 1010.4
20190120034555 70 177 0.0 3.0 0.00 0.00 0.00 81 1010.5
20190120033045 70 181 1.0 4.0 0.00 0.00 0.00 81 1010.2
20190120031534 69 198 0.0 5.0 0.00 0.00 0.00 82 1010.3
20190120030026 69 194 1.0 6.0 0.00 0.00 0.00 82 1010.3
20190120024537 70 200 1.0 6.0 0.00 0.00 0.00 80 1010.3
20190120023050 70 203 1.0 6.0 0.00 0.00 0.00 79 1010.2
20190120021553 70 191 0.0 5.0 0.00 0.00 0.00 78 1010.2
20190120020028 71 145 0.0 7.0 0.00 0.00 0.00 77 1010.3
20190120014516 71 142 0.0 8.0 0.00 0.00 0.00 76 1010.3
20190120013045 71 201 1.0 6.0 0.00 0.00 0.00 76 1010.2
20190120011535 71 210 1.0 6.0 0.00 0.00 0.00 76 1010.6
20190120010022 71 205 1.0 9.0 0.00 0.00 0.00 76 1010.8
20190120004534 71 173 0.0 6.0 0.00 0.00 0.00 75 1010.9
20190120003033 71 79 1.0 4.0 0.00 0.00 0.00 75 1011.2
20190120001508 71 108 0.0 6.0 0.00 0.00 0.00 75 1011.2
20190120000005 71 233 1.0 6.0 0.00 0.00 0.00 74 1011.0
20190119234652 71 176 0.0 3.0 0.00 0.00 0.00 74 1011.3
20190119233259 71 201 0.0 3.0 0.00 0.00 0.00 74 1011.5
20190119231642 71 132 0.0 1.0 0.00 0.00 0.00 74 1011.4
20190119230206 71 169 0.0 3.0 0.00 0.00 0.00 73 1011.6